sensor_id;sensor_type;location;lat;lon;timestamp;pressure;altitude;pressure_sealevel;temperature;humidity
15634;BME280;14654;48.898;8.308;2023-02-19T00:01:35;100940.34;;;10.03;100.00
15634;BME280;14654;48.898;8.308;2023-02-19T00:04:06;100941.19;;;9.99;100.00
15634;BME280;14654;48.898;8.308;2023-02-19T00:06:33;100942.91;;;9.96;100.00
15634;BME280;14654;48.898;8.308;2023-02-19T00:08:59;100941.16;;;9.91;100.00
15634;BME280;14654;48.898;8.308;2023-02-19T00:11:27;100936.84;;;9.89;100.00
15634;BME280;14654;48.898;8.308;2023-02-19T00:13:54;100936.81;;;9.83;100.00
15634;BME280;14654;48.898;8.308;2023-02-19T00:16:33;100941.13;;;9.82;100.00
15634;BME280;14654;48.898;8.308;2023-02-19T00:18:59;100932.47;;;9.77;100.00
15634;BME280;14654;48.898;8.308;2023-02-19T00:21:25;100942.81;;;9.77;100.00
15634;BME280;14654;48.898;8.308;2023-02-19T00:23:53;100933.31;;;9.74;100.00
15634;BME280;14654;48.898;8.308;2023-02-19T00:26:19;100929.00;;;9.72;100.00
15634;BME280;14654;48.898;8.308;2023-02-19T00:28:46;100928.13;;;9.68;100.00
15634;BME280;14654;48.898;8.308;2023-02-19T00:33:37;100934.16;;;9.66;100.00
15634;BME280;14654;48.898;8.308;2023-02-19T00:36:03;100931.53;;;9.64;100.00
15634;BME280;14654;48.898;8.308;2023-02-19T00:38:30;100930.69;;;9.64;100.00
15634;BME280;14654;48.898;8.308;2023-02-19T00:40:58;100927.22;;;9.60;100.00
15634;BME280;14654;48.898;8.308;2023-02-19T00:43:24;100928.06;;;9.60;100.00
15634;BME280;14654;48.898;8.308;2023-02-19T00:45:49;100913.44;;;9.59;100.00
15634;BME280;14654;48.898;8.308;2023-02-19T00:48:14;100906.56;;;9.60;100.00
15634;BME280;14654;48.898;8.308;2023-02-19T00:50:39;100910.84;;;9.59;100.00
15634;BME280;14654;48.898;8.308;2023-02-19T00:53:05;100901.34;;;9.52;100.00
15634;BME280;14654;48.898;8.308;2023-02-19T00:55:30;100897.88;;;9.50;100.00
15634;BME280;14654;48.898;8.308;2023-02-19T00:57:55;100897.84;;;9.49;100.00
15634;BME280;14654;48.898;8.308;2023-02-19T01:00:21;100894.41;;;9.46;100.00
15634;BME280;14654;48.898;8.308;2023-02-19T01:02:46;100898.66;;;9.40;100.00
15634;BME280;14654;48.898;8.308;2023-02-19T01:05:11;100915.03;;;9.39;100.00
15634;BME280;14654;48.898;8.308;2023-02-19T01:07:36;100914.19;;;9.37;100.00
15634;BME280;14654;48.898;8.308;2023-02-19T01:10:03;100921.03;;;9.38;100.00
15634;BME280;14654;48.898;8.308;2023-02-19T01:12:28;100927.94;;;9.39;100.00
15634;BME280;14654;48.898;8.308;2023-02-19T01:14:55;100918.47;;;9.39;100.00
15634;BME280;14654;48.898;8.308;2023-02-19T01:17:20;100913.31;;;9.39;100.00
15634;BME280;14654;48.898;8.308;2023-02-19T01:19:46;100908.16;;;9.39;100.00
15634;BME280;14654;48.898;8.308;2023-02-19T01:22:11;100915.06;;;9.40;100.00
15634;BME280;14654;48.898;8.308;2023-02-19T01:24:37;100915.88;;;9.38;100.00
15634;BME280;14654;48.898;8.308;2023-02-19T01:27:03;100917.59;;;9.36;100.00
15634;BME280;14654;48.898;8.308;2023-02-19T01:29:28;100912.44;;;9.36;100.00
15634;BME280;14654;48.898;8.308;2023-02-19T01:31:53;100919.34;;;9.37;100.00
15634;BME280;14654;48.898;8.308;2023-02-19T01:34:19;100912.44;;;9.37;100.00
15634;BME280;14654;48.898;8.308;2023-02-19T01:36:44;100909.00;;;9.37;100.00
15634;BME280;14654;48.898;8.308;2023-02-19T01:39:10;100907.28;;;9.36;100.00
15634;BME280;14654;48.898;8.308;2023-02-19T01:41:37;100909.84;;;9.36;100.00
15634;BME280;14654;48.898;8.308;2023-02-19T01:44:04;100915.03;;;9.37;100.00
15634;BME280;14654;48.898;8.308;2023-02-19T01:46:36;100915.88;;;9.36;100.00
15634;BME280;14654;48.898;8.308;2023-02-19T01:51:30;100932.25;;;9.38;100.00
15634;BME280;14654;48.898;8.308;2023-02-19T01:53:59;100920.19;;;9.39;100.00
15634;BME280;14654;48.898;8.308;2023-02-19T01:56:27;100909.00;;;9.38;100.00
15634;BME280;14654;48.898;8.308;2023-02-19T01:58:53;100903.84;;;9.38;100.00
15634;BME280;14654;48.898;8.308;2023-02-19T02:01:18;100902.97;;;9.38;100.00
15634;BME280;14654;48.898;8.308;2023-02-19T02:03:46;100898.69;;;9.37;100.00
15634;BME280;14654;48.898;8.308;2023-02-19T02:06:20;100901.22;;;9.35;100.00
15634;BME280;14654;48.898;8.308;2023-02-19T02:08:50;100905.53;;;9.33;100.00
15634;BME280;14654;48.898;8.308;2023-02-19T02:11:34;100900.34;;;9.30;100.00
15634;BME280;14654;48.898;8.308;2023-02-19T02:14:02;100887.41;;;9.28;100.00
15634;BME280;14654;48.898;8.308;2023-02-19T02:22:23;100892.53;;;9.19;100.00
15634;BME280;14654;48.898;8.308;2023-02-19T02:25:19;100908.88;;;9.18;100.00
15634;BME280;14654;48.898;8.308;2023-02-19T02:27:53;100894.25;;;9.19;100.00
15634;BME280;14654;48.898;8.308;2023-02-19T02:30:38;100897.69;;;9.19;100.00
15634;BME280;14654;48.898;8.308;2023-02-19T02:35:52;100888.22;;;9.20;100.00
15634;BME280;14654;48.898;8.308;2023-02-19T02:38:21;100895.97;;;9.20;100.00
15634;BME280;14654;48.898;8.308;2023-02-19T02:40:48;100884.78;;;9.19;100.00
15634;BME280;14654;48.898;8.308;2023-02-19T02:43:14;100889.94;;;9.21;100.00
15634;BME280;14654;48.898;8.308;2023-02-19T02:45:40;100879.63;;;9.21;100.00
15634;BME280;14654;48.898;8.308;2023-02-19T02:48:17;100871.88;;;9.21;100.00
15634;BME280;14654;48.898;8.308;2023-02-19T02:50:49;100883.06;;;9.20;100.00
15634;BME280;14654;48.898;8.308;2023-02-19T02:53:48;100872.72;;;9.18;100.00
15634;BME280;14654;48.898;8.308;2023-02-19T02:56:34;100877.03;;;9.19;100.00
15634;BME280;14654;48.898;8.308;2023-02-19T02:59:01;100877.88;;;9.20;100.00
15634;BME280;14654;48.898;8.308;2023-02-19T03:07:04;100855.50;;;9.19;100.00
15634;BME280;14654;48.898;8.308;2023-02-19T03:09:36;100857.22;;;9.17;100.00
15634;BME280;14654;48.898;8.308;2023-02-19T03:12:07;100863.22;;;9.15;100.00
15634;BME280;14654;48.898;8.308;2023-02-19T03:14:54;100854.63;;;9.13;100.00
15634;BME280;14654;48.898;8.308;2023-02-19T03:17:47;100860.66;;;9.14;100.00
15634;BME280;14654;48.898;8.308;2023-02-19T03:20:37;100863.22;;;9.12;100.00
15634;BME280;14654;48.898;8.308;2023-02-19T03:23:05;100858.91;;;9.13;100.00
15634;BME280;14654;48.898;8.308;2023-02-19T03:25:32;100853.75;;;9.13;100.00
15634;BME280;14654;48.898;8.308;2023-02-19T03:28:20;100861.53;;;9.14;100.00
15634;BME280;14654;48.898;8.308;2023-02-19T03:31:09;100859.78;;;9.15;100.00
15634;BME280;14654;48.898;8.308;2023-02-19T03:33:37;100858.91;;;9.13;100.00
15634;BME280;14654;48.898;8.308;2023-02-19T03:36:06;100864.09;;;9.14;100.00
15634;BME280;14654;48.898;8.308;2023-02-19T03:38:51;100861.53;;;9.14;100.00
15634;BME280;14654;48.898;8.308;2023-02-19T03:41:21;100866.66;;;9.11;100.00
15634;BME280;14654;48.898;8.308;2023-02-19T03:44:08;100868.41;;;9.12;100.00
15634;BME280;14654;48.898;8.308;2023-02-19T03:52:25;100874.38;;;9.10;100.00
15634;BME280;14654;48.898;8.308;2023-02-19T03:55:05;100883.00;;;9.12;100.00
15634;BME280;14654;48.898;8.308;2023-02-19T03:57:55;100890.78;;;9.15;100.00
15634;BME280;14654;48.898;8.308;2023-02-19T04:03:36;100885.63;;;9.18;100.00
15634;BME280;14654;48.898;8.308;2023-02-19T04:06:09;100889.06;;;9.17;100.00
15634;BME280;14654;48.898;8.308;2023-02-19T04:08:38;100891.66;;;9.19;100.00
15634;BME280;14654;48.898;8.308;2023-02-19T04:11:07;100910.63;;;9.19;100.00
15634;BME280;14654;48.898;8.308;2023-02-19T04:13:44;100916.66;;;9.21;100.00
15634;BME280;14654;48.898;8.308;2023-02-19T04:16:16;100921.81;;;9.21;100.00
15634;BME280;14654;48.898;8.308;2023-02-19T04:18:46;100923.53;;;9.21;100.00
15634;BME280;14654;48.898;8.308;2023-02-19T04:21:14;100900.28;;;9.21;100.00
15634;BME280;14654;48.898;8.308;2023-02-19T04:23:43;100920.94;;;9.21;100.00
15634;BME280;14654;48.898;8.308;2023-02-19T04:26:10;100926.13;;;9.22;100.00
15634;BME280;14654;48.898;8.308;2023-02-19T04:28:37;100919.25;;;9.23;100.00
15634;BME280;14654;48.898;8.308;2023-02-19T04:31:03;100924.41;;;9.23;100.00
15634;BME280;14654;48.898;8.308;2023-02-19T04:33:28;100929.56;;;9.23;100.00
15634;BME280;14654;48.898;8.308;2023-02-19T04:35:53;100930.41;;;9.23;100.00
15634;BME280;14654;48.898;8.308;2023-02-19T04:38:18;100939.91;;;9.21;100.00
15634;BME280;14654;48.898;8.308;2023-02-19T04:40:44;100951.09;;;9.20;100.00
15634;BME280;14654;48.898;8.308;2023-02-19T04:43:10;100942.44;;;9.17;100.00
15634;BME280;14654;48.898;8.308;2023-02-19T04:45:37;100956.19;;;9.15;100.00
15634;BME280;14654;48.898;8.308;2023-02-19T04:48:02;100957.06;;;9.14;100.00
15634;BME280;14654;48.898;8.308;2023-02-19T04:50:28;100954.47;;;9.13;100.00
15634;BME280;14654;48.898;8.308;2023-02-19T04:52:53;100969.09;;;9.14;100.00
15634;BME280;14654;48.898;8.308;2023-02-19T04:55:18;100965.63;;;9.12;100.00
15634;BME280;14654;48.898;8.308;2023-02-19T04:57:44;100963.91;;;9.11;100.00
15634;BME280;14654;48.898;8.308;2023-02-19T05:00:11;100957.00;;;9.07;100.00
15634;BME280;14654;48.898;8.308;2023-02-19T05:02:37;100968.19;;;9.07;100.00
15634;BME280;14654;48.898;8.308;2023-02-19T05:05:02;100962.13;;;9.05;100.00
15634;BME280;14654;48.898;8.308;2023-02-19T05:07:28;100969.84;;;9.02;100.00
15634;BME280;14654;48.898;8.308;2023-02-19T05:09:53;100974.16;;;9.02;100.00
15634;BME280;14654;48.898;8.308;2023-02-19T05:12:18;100972.44;;;9.02;100.00
15634;BME280;14654;48.898;8.308;2023-02-19T05:14:44;100962.97;;;8.99;100.00
15634;BME280;14654;48.898;8.308;2023-02-19T05:17:09;100957.75;;;8.96;100.00
15634;BME280;14654;48.898;8.308;2023-02-19T05:19:34;100951.72;;;8.94;100.00
15634;BME280;14654;48.898;8.308;2023-02-19T05:21:59;100947.41;;;8.92;100.00
15634;BME280;14654;48.898;8.308;2023-02-19T05:24:25;100944.75;;;8.85;100.00
15634;BME280;14654;48.898;8.308;2023-02-19T05:26:51;100959.41;;;8.85;100.00
15634;BME280;14654;48.898;8.308;2023-02-19T05:29:17;100957.63;;;8.81;100.00
15634;BME280;14654;48.898;8.308;2023-02-19T05:31:42;100955.09;;;8.82;100.00
15634;BME280;14654;48.898;8.308;2023-02-19T05:34:07;100955.91;;;8.78;100.00
15634;BME280;14654;48.898;8.308;2023-02-19T05:36:32;100961.06;;;8.80;100.00
15634;BME280;14654;48.898;8.308;2023-02-19T05:38:58;100958.47;;;8.78;100.00
15634;BME280;14654;48.898;8.308;2023-02-19T05:41:25;100958.44;;;8.74;100.00
15634;BME280;14654;48.898;8.308;2023-02-19T05:43:52;100957.56;;;8.73;100.00
15634;BME280;14654;48.898;8.308;2023-02-19T05:46:20;100948.13;;;8.75;100.00
15634;BME280;14654;48.898;8.308;2023-02-19T05:48:47;100954.97;;;8.72;100.00
15634;BME280;14654;48.898;8.308;2023-02-19T05:51:14;100958.41;;;8.69;100.00
15634;BME280;14654;48.898;8.308;2023-02-19T05:53:41;100958.41;;;8.71;100.00
15634;BME280;14654;48.898;8.308;2023-02-19T05:56:36;100967.84;;;8.67;100.00
15634;BME280;14654;48.898;8.308;2023-02-19T05:59:23;100966.09;;;8.66;100.00
15634;BME280;14654;48.898;8.308;2023-02-19T06:01:50;100978.13;;;8.65;100.00
15634;BME280;14654;48.898;8.308;2023-02-19T06:04:15;100974.69;;;8.65;100.00
15634;BME280;14654;48.898;8.308;2023-02-19T06:06:43;100973.84;;;8.66;100.00
15634;BME280;14654;48.898;8.308;2023-02-19T06:09:09;100985.06;;;8.68;100.00
15634;BME280;14654;48.898;8.308;2023-02-19T06:11:35;100979.00;;;8.67;100.00
15634;BME280;14654;48.898;8.308;2023-02-19T06:14:01;100990.22;;;8.68;100.00
15634;BME280;14654;48.898;8.308;2023-02-19T06:16:27;100986.78;;;8.69;100.00
15634;BME280;14654;48.898;8.308;2023-02-19T06:18:53;100993.66;;;8.68;100.00
15634;BME280;14654;48.898;8.308;2023-02-19T06:21:19;101000.53;;;8.69;100.00
15634;BME280;14654;48.898;8.308;2023-02-19T06:23:45;101002.28;;;8.69;100.00
15634;BME280;14654;48.898;8.308;2023-02-19T06:26:20;100996.22;;;8.68;100.00
15634;BME280;14654;48.898;8.308;2023-02-19T06:28:47;100997.03;;;8.64;100.00
15634;BME280;14654;48.898;8.308;2023-02-19T06:31:13;101003.94;;;8.65;100.00
15634;BME280;14654;48.898;8.308;2023-02-19T06:33:40;101005.66;;;8.66;100.00
15634;BME280;14654;48.898;8.308;2023-02-19T06:36:10;101007.34;;;8.63;100.00
15634;BME280;14654;48.898;8.308;2023-02-19T06:38:36;101010.78;;;8.63;100.00
15634;BME280;14654;48.898;8.308;2023-02-19T06:41:05;101016.78;;;8.61;100.00
15634;BME280;14654;48.898;8.308;2023-02-19T06:43:34;101022.78;;;8.58;100.00
15634;BME280;14654;48.898;8.308;2023-02-19T06:46:00;101023.66;;;8.59;100.00
15634;BME280;14654;48.898;8.308;2023-02-19T06:48:27;101028.81;;;8.59;100.00
15634;BME280;14654;48.898;8.308;2023-02-19T06:50:53;101027.09;;;8.59;100.00
15634;BME280;14654;48.898;8.308;2023-02-19T06:53:18;101032.25;;;8.59;100.00
15634;BME280;14654;48.898;8.308;2023-02-19T06:55:57;101029.69;;;8.59;100.00
15634;BME280;14654;48.898;8.308;2023-02-19T06:58:23;101027.09;;;8.61;100.00
15634;BME280;14654;48.898;8.308;2023-02-19T07:00:48;101028.84;;;8.63;100.00
15634;BME280;14654;48.898;8.308;2023-02-19T07:03:14;101020.28;;;8.66;100.00
15634;BME280;14654;48.898;8.308;2023-02-19T07:05:39;101028.03;;;8.66;100.00
15634;BME280;14654;48.898;8.308;2023-02-19T07:08:04;101036.63;;;8.66;100.00
15634;BME280;14654;48.898;8.308;2023-02-19T07:10:29;101028.94;;;8.71;100.00
15634;BME280;14654;48.898;8.308;2023-02-19T07:12:55;101034.09;;;8.71;100.00
15634;BME280;14654;48.898;8.308;2023-02-19T07:15:20;101049.56;;;8.69;100.00
15634;BME280;14654;48.898;8.308;2023-02-19T07:17:45;101050.47;;;8.72;100.00
15634;BME280;14654;48.898;8.308;2023-02-19T07:20:11;101049.66;;;8.76;100.00
15634;BME280;14654;48.898;8.308;2023-02-19T07:22:36;101050.50;;;8.76;100.00
15634;BME280;14654;48.898;8.308;2023-02-19T07:25:02;101057.41;;;8.76;100.00
15634;BME280;14654;48.898;8.308;2023-02-19T07:27:27;101065.16;;;8.79;100.00
15634;BME280;14654;48.898;8.308;2023-02-19T07:29:52;101078.16;;;8.88;100.00
15634;BME280;14654;48.898;8.308;2023-02-19T07:32:18;101088.50;;;8.90;100.00
15634;BME280;14654;48.898;8.308;2023-02-19T07:34:43;101084.22;;;8.92;100.00
15634;BME280;14654;48.898;8.308;2023-02-19T07:37:08;101082.56;;;8.98;100.00
15634;BME280;14654;48.898;8.308;2023-02-19T07:39:33;101089.47;;;9.01;100.00
15634;BME280;14654;48.898;8.308;2023-02-19T07:41:59;101089.50;;;9.03;100.00
15634;BME280;14654;48.898;8.308;2023-02-19T07:44:24;101091.19;;;9.02;100.00
15634;BME280;14654;48.898;8.308;2023-02-19T07:46:50;101094.66;;;9.04;100.00
15634;BME280;14654;48.898;8.308;2023-02-19T07:49:15;101102.41;;;9.04;100.00
15634;BME280;14654;48.898;8.308;2023-02-19T07:51:40;101097.25;;;9.04;100.00
15634;BME280;14654;48.898;8.308;2023-02-19T07:54:05;101104.16;;;9.05;100.00
15634;BME280;14654;48.898;8.308;2023-02-19T07:56:32;101103.31;;;9.05;100.00
15634;BME280;14654;48.898;8.308;2023-02-19T07:58:59;101099.88;;;9.06;100.00
15634;BME280;14654;48.898;8.308;2023-02-19T08:01:24;101109.31;;;9.04;100.00
15634;BME280;14654;48.898;8.308;2023-02-19T08:04:08;101114.47;;;9.05;100.00
15634;BME280;14654;48.898;8.308;2023-02-19T08:06:34;101112.78;;;9.06;100.00
15634;BME280;14654;48.898;8.308;2023-02-19T08:08:59;101114.47;;;9.05;100.00
15634;BME280;14654;48.898;8.308;2023-02-19T08:11:25;101104.16;;;9.05;100.00
15634;BME280;14654;48.898;8.308;2023-02-19T08:14:08;101113.63;;;9.06;100.00
15634;BME280;14654;48.898;8.308;2023-02-19T08:16:34;101116.25;;;9.09;100.00
15634;BME280;14654;48.898;8.308;2023-02-19T08:18:59;101117.19;;;9.14;100.00
15634;BME280;14654;48.898;8.308;2023-02-19T08:21:24;101117.22;;;9.21;100.00
15634;BME280;14654;48.898;8.308;2023-02-19T08:23:50;101123.31;;;9.26;100.00
15634;BME280;14654;48.898;8.308;2023-02-19T08:26:15;101119.03;;;9.29;100.00
15634;BME280;14654;48.898;8.308;2023-02-19T08:28:41;101128.50;;;9.30;100.00
15634;BME280;14654;48.898;8.308;2023-02-19T08:31:07;101128.53;;;9.32;100.00
15634;BME280;14654;48.898;8.308;2023-02-19T08:33:33;101128.56;;;9.34;100.00
15634;BME280;14654;48.898;8.308;2023-02-19T08:36:04;101126.00;;;9.40;100.00
15634;BME280;14654;48.898;8.308;2023-02-19T08:38:30;101134.69;;;9.46;100.00
15634;BME280;14654;48.898;8.308;2023-02-19T08:40:55;101138.22;;;9.55;100.00
15634;BME280;14654;48.898;8.308;2023-02-19T08:43:21;101130.53;;;9.63;100.00
15634;BME280;14654;48.898;8.308;2023-02-19T08:45:46;101134.03;;;9.69;100.00
15634;BME280;14654;48.898;8.308;2023-02-19T08:48:12;101137.53;;;9.74;100.00
15634;BME280;14654;48.898;8.308;2023-02-19T08:50:37;101146.16;;;9.78;100.00
15634;BME280;14654;48.898;8.308;2023-02-19T08:53:04;101143.63;;;9.81;100.00
15634;BME280;14654;48.898;8.308;2023-02-19T08:55:30;101149.63;;;9.83;100.00
15634;BME280;14654;48.898;8.308;2023-02-19T08:57:56;101149.66;;;9.85;100.00
15634;BME280;14654;48.898;8.308;2023-02-19T09:00:21;101147.06;;;9.86;100.00
15634;BME280;14654;48.898;8.308;2023-02-19T09:02:47;101149.69;;;9.91;100.00
15634;BME280;14654;48.898;8.308;2023-02-19T09:05:13;101159.19;;;9.92;100.00
15634;BME280;14654;48.898;8.308;2023-02-19T09:07:39;101150.59;;;9.96;100.00
15634;BME280;14654;48.898;8.308;2023-02-19T09:10:05;101152.41;;;10.03;100.00
15634;BME280;14654;48.898;8.308;2023-02-19T09:12:31;101150.72;;;10.12;100.00
15634;BME280;14654;48.898;8.308;2023-02-19T09:14:58;101140.41;;;10.19;100.00
15634;BME280;14654;48.898;8.308;2023-02-19T09:17:23;101149.97;;;10.30;100.00
15634;BME280;14654;48.898;8.308;2023-02-19T09:19:48;101150.06;;;10.39;100.00
15634;BME280;14654;48.898;8.308;2023-02-19T09:22:13;101143.22;;;10.50;100.00
15634;BME280;14654;48.898;8.308;2023-02-19T09:24:39;101151.03;;;10.63;100.00
15634;BME280;14654;48.898;8.308;2023-02-19T09:27:04;101150.19;;;10.67;100.00
15634;BME280;14654;48.898;8.308;2023-02-19T09:29:30;101148.50;;;10.72;100.00
15634;BME280;14654;48.898;8.308;2023-02-19T09:31:56;101153.69;;;10.78;100.00
15634;BME280;14654;48.898;8.308;2023-02-19T09:34:22;101153.72;;;10.85;100.00
15634;BME280;14654;48.898;8.308;2023-02-19T09:36:48;101158.03;;;10.87;100.00
15634;BME280;14654;48.898;8.308;2023-02-19T09:39:14;101172.75;;;10.87;100.00
15634;BME280;14654;48.898;8.308;2023-02-19T09:41:57;101179.66;;;10.88;100.00
15634;BME280;14654;48.898;8.308;2023-02-19T09:44:31;101186.53;;;10.87;100.00
15634;BME280;14654;48.898;8.308;2023-02-19T09:46:57;101187.41;;;10.88;100.00
15634;BME280;14654;48.898;8.308;2023-02-19T09:49:31;101198.63;;;10.90;100.00
15634;BME280;14654;48.898;8.308;2023-02-19T09:52:02;101197.78;;;10.94;100.00
15634;BME280;14654;48.898;8.308;2023-02-19T09:54:31;101206.41;;;10.97;100.00
15634;BME280;14654;48.898;8.308;2023-02-19T09:57:00;101222.00;;;11.04;100.00
15634;BME280;14654;48.898;8.308;2023-02-19T09:59:30;101214.25;;;11.08;100.00
15634;BME280;14654;48.898;8.308;2023-02-19T10:02:04;101217.72;;;11.13;100.00
15634;BME280;14654;48.898;8.308;2023-02-19T10:04:36;101210.81;;;11.14;100.00
15634;BME280;14654;48.898;8.308;2023-02-19T10:07:02;101208.22;;;11.17;100.00
15634;BME280;14654;48.898;8.308;2023-02-19T10:09:29;101209.09;;;11.21;100.00
15634;BME280;14654;48.898;8.308;2023-02-19T10:11:55;101216.03;;;11.25;100.00
15634;BME280;14654;48.898;8.308;2023-02-19T10:14:30;101211.72;;;11.27;100.00
15634;BME280;14654;48.898;8.308;2023-02-19T10:16:58;101203.94;;;11.28;100.00
15634;BME280;14654;48.898;8.308;2023-02-19T10:19:25;101207.41;;;11.31;100.00
15634;BME280;14654;48.898;8.308;2023-02-19T10:21:50;101207.44;;;11.32;100.00
15634;BME280;14654;48.898;8.308;2023-02-19T10:24:20;101210.03;;;11.32;100.00
15634;BME280;14654;48.898;8.308;2023-02-19T10:26:46;101212.59;;;11.34;100.00
15634;BME280;14654;48.898;8.308;2023-02-19T10:29:11;101210.88;;;11.36;100.00
15634;BME280;14654;48.898;8.308;2023-02-19T10:31:36;101210.88;;;11.40;100.00
15634;BME280;14654;48.898;8.308;2023-02-19T10:34:02;101209.19;;;11.46;100.00
15634;BME280;14654;48.898;8.308;2023-02-19T10:38:57;101220.44;;;11.57;100.00
15634;BME280;14654;48.898;8.308;2023-02-19T10:41:24;101210.94;;;11.64;100.00
15634;BME280;14654;48.898;8.308;2023-02-19T10:44:14;101214.41;;;11.70;100.00
15634;BME280;14654;48.898;8.308;2023-02-19T10:46:46;101211.84;;;11.80;100.00
15634;BME280;14654;48.898;8.308;2023-02-19T10:51:53;101210.97;;;11.95;100.00
15634;BME280;14654;48.898;8.308;2023-02-19T10:54:24;101216.19;;;12.02;100.00
15634;BME280;14654;48.898;8.308;2023-02-19T10:56:50;101218.78;;;12.15;100.00
15634;BME280;14654;48.898;8.308;2023-02-19T10:59:27;101222.22;;;12.26;100.00
15634;BME280;14654;48.898;8.308;2023-02-19T11:04:23;101230.00;;;12.48;100.00
15634;BME280;14654;48.898;8.308;2023-02-19T11:06:49;101221.31;;;12.58;100.00
15634;BME280;14654;48.898;8.308;2023-02-19T11:09:27;101218.69;;;12.68;100.00
15634;BME280;14654;48.898;8.308;2023-02-19T11:11:55;101226.44;;;12.78;99.31
15634;BME280;14654;48.898;8.308;2023-02-19T11:14:23;101223.78;;;12.94;98.65
15634;BME280;14654;48.898;8.308;2023-02-19T11:16:51;101223.75;;;13.08;98.29
15634;BME280;14654;48.898;8.308;2023-02-19T11:21:55;101228.00;;;13.31;96.29
15634;BME280;14654;48.898;8.308;2023-02-19T11:24:35;101225.31;;;13.45;96.13
15634;BME280;14654;48.898;8.308;2023-02-19T11:27:04;101215.75;;;13.48;94.88
15634;BME280;14654;48.898;8.308;2023-02-19T11:29:30;101210.50;;;13.61;94.69
15634;BME280;14654;48.898;8.308;2023-02-19T11:34:45;101205.09;;;13.87;93.39
15634;BME280;14654;48.898;8.308;2023-02-19T11:37:13;101200.72;;;13.92;92.70
15634;BME280;14654;48.898;8.308;2023-02-19T11:39:41;101208.47;;;14.00;91.93
15634;BME280;14654;48.898;8.308;2023-02-19T11:42:14;101205.00;;;14.01;91.51
15634;BME280;14654;48.898;8.308;2023-02-19T11:51:00;101206.66;;;14.07;89.79
15634;BME280;14654;48.898;8.308;2023-02-19T11:53:34;101213.63;;;14.06;90.45
15634;BME280;14654;48.898;8.308;2023-02-19T11:56:15;101207.50;;;14.10;90.15
15634;BME280;14654;48.898;8.308;2023-02-19T12:12:48;101209.94;;;14.29;88.54
15634;BME280;14654;48.898;8.308;2023-02-19T12:18:32;101207.22;;;14.43;88.36
15634;BME280;14654;48.898;8.308;2023-02-19T12:21:16;101206.28;;;14.48;87.96
15634;BME280;14654;48.898;8.308;2023-02-19T12:23:57;101214.00;;;14.59;88.14
15634;BME280;14654;48.898;8.308;2023-02-19T12:29:18;101227.91;;;14.54;88.05
15634;BME280;14654;48.898;8.308;2023-02-19T12:34:41;101209.88;;;14.33;87.41
15634;BME280;14654;48.898;8.308;2023-02-19T12:37:37;101201.19;;;14.35;87.35
15634;BME280;14654;48.898;8.308;2023-02-19T12:40:13;101200.31;;;14.39;87.09
15634;BME280;14654;48.898;8.308;2023-02-19T12:42:52;101195.06;;;14.42;86.77
15634;BME280;14654;48.898;8.308;2023-02-19T12:45:32;101193.31;;;14.44;86.73
15634;BME280;14654;48.898;8.308;2023-02-19T12:48:13;101197.63;;;14.45;86.15
15634;BME280;14654;48.898;8.308;2023-02-19T12:50:43;101193.25;;;14.47;85.86
15634;BME280;14654;48.898;8.308;2023-02-19T12:53:21;101194.97;;;14.51;86.16
15634;BME280;14654;48.898;8.308;2023-02-19T12:55:49;101198.38;;;14.55;85.73
15634;BME280;14654;48.898;8.308;2023-02-19T12:58:27;101207.91;;;14.59;85.39
15634;BME280;14654;48.898;8.308;2023-02-19T13:00:55;101191.34;;;14.66;85.42
15634;BME280;14654;48.898;8.308;2023-02-19T13:03:34;101197.41;;;14.67;85.42
15634;BME280;14654;48.898;8.308;2023-02-19T13:09:03;101193.03;;;14.72;84.83
15634;BME280;14654;48.898;8.308;2023-02-19T13:11:43;101193.06;;;14.66;83.10
15634;BME280;14654;48.898;8.308;2023-02-19T13:14:33;101201.78;;;14.61;82.73
15634;BME280;14654;48.898;8.308;2023-02-19T13:17:05;101187.13;;;14.53;82.27
15634;BME280;14654;48.898;8.308;2023-02-19T13:19:36;101197.66;;;14.40;82.06
15634;BME280;14654;48.898;8.308;2023-02-19T13:22:15;101195.97;;;14.38;82.10
15634;BME280;14654;48.898;8.308;2023-02-19T13:25:02;101196.78;;;14.41;81.98
15634;BME280;14654;48.898;8.308;2023-02-19T13:33:38;101214.19;;;14.38;82.82
15634;BME280;14654;48.898;8.308;2023-02-19T13:36:23;101206.50;;;14.25;83.25
15634;BME280;14654;48.898;8.308;2023-02-19T13:38:50;101214.38;;;14.21;83.43
15634;BME280;14654;48.898;8.308;2023-02-19T13:41:24;101210.09;;;14.13;83.66
15634;BME280;14654;48.898;8.308;2023-02-19T13:44:00;101195.38;;;14.09;84.25
15634;BME280;14654;48.898;8.308;2023-02-19T13:46:34;101191.09;;;14.05;84.66
15634;BME280;14654;48.898;8.308;2023-02-19T13:54:33;101198.09;;;13.98;85.45
15634;BME280;14654;48.898;8.308;2023-02-19T13:57:26;101188.53;;;13.99;85.72
15634;BME280;14654;48.898;8.308;2023-02-19T13:59:54;101192.88;;;13.98;86.08
15634;BME280;14654;48.898;8.308;2023-02-19T14:04:57;101178.16;;;13.93;86.80
15634;BME280;14654;48.898;8.308;2023-02-19T14:09:52;101186.06;;;13.82;86.94
15634;BME280;14654;48.898;8.308;2023-02-19T14:12:20;101182.66;;;13.74;87.08
15634;BME280;14654;48.898;8.308;2023-02-19T14:19:55;101186.25;;;13.55;87.27
15634;BME280;14654;48.898;8.308;2023-02-19T14:25:49;101181.97;;;13.47;88.17
15634;BME280;14654;48.898;8.308;2023-02-19T14:28:29;101183.72;;;13.45;88.22
15634;BME280;14654;48.898;8.308;2023-02-19T14:31:18;101192.41;;;13.40;88.09
15634;BME280;14654;48.898;8.308;2023-02-19T14:34:02;101192.44;;;13.34;87.99
15634;BME280;14654;48.898;8.308;2023-02-19T14:36:46;101189.03;;;13.23;87.75
15634;BME280;14654;48.898;8.308;2023-02-19T14:39:18;101193.41;;;13.11;87.98